createdAt,value
2023-03-29T00:00:12.173Z,3.51
2023-03-29T00:02:40.667Z,3.39
2023-03-29T00:05:12.222Z,3.41
2023-03-29T00:07:41.142Z,3.45
2023-03-29T00:10:11.074Z,3.42
2023-03-29T00:12:40.420Z,3.43
2023-03-29T00:15:09.601Z,3.44
2023-03-29T00:17:37.555Z,3.40
2023-03-29T00:20:10.119Z,3.33
2023-03-29T00:22:42.019Z,3.34
2023-03-29T00:25:10.203Z,3.28
2023-03-29T00:27:38.646Z,3.31
2023-03-29T00:30:08.489Z,3.33
2023-03-29T00:32:36.626Z,3.17
2023-03-29T00:35:06.235Z,3.11
2023-03-29T00:37:34.528Z,3.04
2023-03-29T00:40:07.669Z,3.07
2023-03-29T00:42:35.762Z,3.02
2023-03-29T00:45:06.979Z,3.01
2023-03-29T00:47:39.330Z,2.98
2023-03-29T00:50:12.487Z,2.90
2023-03-29T00:52:41.569Z,2.93
2023-03-29T00:55:15.700Z,2.94
2023-03-29T00:57:46.608Z,2.96
2023-03-29T01:00:20.706Z,3.05
2023-03-29T01:02:54.203Z,3.08
2023-03-29T01:05:26.993Z,3.03
2023-03-29T01:07:58.375Z,2.98
2023-03-29T01:10:33.626Z,3.01
2023-03-29T01:13:06.233Z,2.96
2023-03-29T01:15:34.677Z,3.07
2023-03-29T01:18:03.206Z,2.98
2023-03-29T01:20:44.045Z,2.92
2023-03-29T01:23:26.891Z,2.84
2023-03-29T01:26:02.944Z,2.92
2023-03-29T01:28:36.346Z,2.87
2023-03-29T01:31:08.544Z,2.88
2023-03-29T01:33:40.209Z,2.80
2023-03-29T01:36:13.700Z,2.80
2023-03-29T01:38:44.829Z,2.79
2023-03-29T01:41:13.169Z,2.84
2023-03-29T01:43:46.205Z,2.82
2023-03-29T01:46:16.724Z,2.86
2023-03-29T01:48:48.686Z,2.72
2023-03-29T01:51:19.796Z,2.78
2023-03-29T01:53:49.830Z,2.77
2023-03-29T01:56:20.594Z,2.80
2023-03-29T01:58:53.621Z,2.72
2023-03-29T02:01:25.780Z,2.74
2023-03-29T02:03:56.463Z,2.78
2023-03-29T02:06:28.060Z,2.77
2023-03-29T02:08:56.615Z,2.76
2023-03-29T02:11:25.864Z,2.79
2023-03-29T02:13:55.089Z,2.89
2023-03-29T02:16:23.003Z,2.99
2023-03-29T02:18:52.711Z,2.99
2023-03-29T02:21:25.725Z,2.97
2023-03-29T02:23:54.882Z,2.92
2023-03-29T02:26:23.960Z,3.00
2023-03-29T02:28:52.758Z,2.99
2023-03-29T02:31:26.129Z,2.97
2023-03-29T02:33:58.712Z,3.00
2023-03-29T02:36:30.738Z,2.95
2023-03-29T02:38:59.835Z,2.94
2023-03-29T02:41:28.158Z,2.79
2023-03-29T02:43:57.063Z,2.78
2023-03-29T02:46:26.750Z,2.79
2023-03-29T02:48:55.646Z,2.79
2023-03-29T02:51:25.809Z,2.70
2023-03-29T02:53:58.348Z,2.72
2023-03-29T02:56:26.377Z,2.76
2023-03-29T02:58:54.337Z,2.68
2023-03-29T03:01:22.925Z,2.60
2023-03-29T03:03:52.939Z,2.59
2023-03-29T03:06:22.105Z,2.63
2023-03-29T03:08:51.510Z,2.62
2023-03-29T03:11:19.388Z,2.71
2023-03-29T03:13:47.568Z,2.60
2023-03-29T03:16:15.478Z,2.52
2023-03-29T03:18:45.844Z,2.45
2023-03-29T03:21:15.154Z,2.37
2023-03-29T03:23:43.451Z,2.29
2023-03-29T03:26:11.574Z,2.31
2023-03-29T03:28:41.166Z,2.36
2023-03-29T03:31:15.744Z,2.29
2023-03-29T03:34:11.254Z,2.24
2023-03-29T03:36:48.440Z,2.28
2023-03-29T03:39:19.048Z,2.31
2023-03-29T03:41:46.944Z,2.24
2023-03-29T03:44:14.926Z,2.19
2023-03-29T03:46:43.841Z,2.20
2023-03-29T03:49:12.129Z,2.23
2023-03-29T03:51:42.278Z,2.18
2023-03-29T03:54:12.266Z,2.21
2023-03-29T03:57:06.204Z,2.23
2023-03-29T03:59:42.029Z,2.26
2023-03-29T04:02:13.632Z,2.24
2023-03-29T04:04:42.236Z,2.21
2023-03-29T04:07:17.728Z,2.22
2023-03-29T04:10:13.292Z,2.26
2023-03-29T04:13:02.388Z,2.23
2023-03-29T04:15:31.393Z,2.21
2023-03-29T04:18:07.692Z,2.27
2023-03-29T04:20:42.413Z,2.23
2023-03-29T04:23:11.715Z,2.23
2023-03-29T04:25:42.228Z,2.23
2023-03-29T04:28:34.177Z,2.17
2023-03-29T04:31:11.684Z,2.20
2023-03-29T04:34:14.741Z,2.17
2023-03-29T04:36:43.537Z,2.08
2023-03-29T04:39:19.002Z,2.06
2023-03-29T04:41:53.676Z,2.12
2023-03-29T04:44:26.697Z,2.17
2023-03-29T04:46:54.825Z,2.19
2023-03-29T04:49:43.980Z,2.23
2023-03-29T04:52:19.212Z,2.21
2023-03-29T04:54:47.482Z,2.25
2023-03-29T04:57:23.964Z,2.20
2023-03-29T05:00:20.368Z,2.21
2023-03-29T05:03:07.424Z,2.29
2023-03-29T05:05:40.125Z,2.24
2023-03-29T05:08:09.350Z,2.19
2023-03-29T05:11:00.391Z,2.19
2023-03-29T05:13:30.839Z,2.21
2023-03-29T05:16:00.526Z,2.23
2023-03-29T05:18:28.644Z,2.25
2023-03-29T05:20:57.213Z,2.32
2023-03-29T05:23:25.987Z,2.27
2023-03-29T05:26:15.211Z,2.27
2023-03-29T05:28:49.013Z,2.20
2023-03-29T05:31:17.673Z,2.22
2023-03-29T05:33:49.926Z,2.25
2023-03-29T05:36:19.826Z,2.35
2023-03-29T05:38:50.604Z,2.45
2023-03-29T05:41:20.704Z,2.43
2023-03-29T05:44:16.861Z,2.50
2023-03-29T05:46:47.263Z,2.53
2023-03-29T05:49:17.867Z,2.65
2023-03-29T05:52:11.625Z,2.80
2023-03-29T05:54:39.841Z,2.79
2023-03-29T05:57:08.350Z,2.86
2023-03-29T05:59:38.500Z,2.86
2023-03-29T06:02:06.785Z,2.75
2023-03-29T06:04:37.474Z,2.92
2023-03-29T06:07:24.364Z,3.14
2023-03-29T06:10:21.321Z,3.32
2023-03-29T06:12:55.470Z,3.39
2023-03-29T06:15:26.942Z,3.41
2023-03-29T06:18:06.952Z,3.50
2023-03-29T06:20:36.452Z,3.49
2023-03-29T06:23:10.177Z,3.67
2023-03-29T06:25:38.561Z,3.79
2023-03-29T06:28:07.425Z,3.56
2023-03-29T06:30:38.471Z,3.74
2023-03-29T06:33:07.185Z,3.78
2023-03-29T06:36:01.774Z,3.69
2023-03-29T06:38:31.038Z,3.69
2023-03-29T06:41:06.389Z,3.74
2023-03-29T06:44:06.954Z,3.76
2023-03-29T06:46:41.161Z,3.87
2023-03-29T06:49:09.769Z,3.97
2023-03-29T06:51:56.936Z,4.14
2023-03-29T06:54:25.627Z,4.13
2023-03-29T06:57:01.196Z,4.20
2023-03-29T06:59:30.472Z,4.35
2023-03-29T07:02:02.677Z,4.54
2023-03-29T07:04:54.282Z,4.65
2023-03-29T07:07:33.158Z,4.78
2023-03-29T07:10:22.732Z,4.75
2023-03-29T07:13:10.501Z,4.87
2023-03-29T07:15:38.577Z,4.78
2023-03-29T07:18:20.964Z,4.88
2023-03-29T07:20:49.201Z,4.94
2023-03-29T07:23:18.079Z,4.89
2023-03-29T07:25:48.154Z,5.10
2023-03-29T07:28:16.232Z,5.50
2023-03-29T07:30:44.132Z,5.44
2023-03-29T07:33:18.304Z,5.95
2023-03-29T07:36:09.136Z,6.09
2023-03-29T07:38:37.830Z,6.54
2023-03-29T07:41:12.531Z,6.56
2023-03-29T07:43:52.133Z,6.19
2023-03-29T07:46:24.973Z,6.44
2023-03-29T07:48:53.191Z,6.16
2023-03-29T07:51:22.710Z,6.60
2023-03-29T07:53:55.446Z,7.15
2023-03-29T07:56:44.054Z,7.17
2023-03-29T07:59:22.313Z,7.79
2023-03-29T08:02:00.143Z,8.25
2023-03-29T08:04:43.887Z,8.99
2023-03-29T08:07:21.012Z,9.40
2023-03-29T08:10:09.005Z,9.46
2023-03-29T08:12:55.418Z,10.19
2023-03-29T08:15:32.057Z,10.29
2023-03-29T08:18:00.338Z,9.78
2023-03-29T08:20:28.587Z,10.16
2023-03-29T08:23:03.233Z,10.23
2023-03-29T08:25:49.837Z,10.27
2023-03-29T08:28:17.876Z,9.69
2023-03-29T08:30:50.529Z,9.55
2023-03-29T08:33:18.631Z,9.54
2023-03-29T08:35:51.339Z,9.40
2023-03-29T08:38:27.912Z,9.95
2023-03-29T08:40:56.457Z,11.90
2023-03-29T08:43:50.429Z,13.86
2023-03-29T08:46:42.189Z,15.50
2023-03-29T08:49:30.679Z,16.26
2023-03-29T08:52:01.981Z,16.38
2023-03-29T08:54:36.711Z,16.84
2023-03-29T08:57:13.719Z,14.78
2023-03-29T08:59:45.450Z,13.23
2023-03-29T09:02:18.798Z,12.93
2023-03-29T09:04:52.357Z,13.14
2023-03-29T09:07:36.244Z,13.81
2023-03-29T09:10:06.162Z,15.11
2023-03-29T09:12:48.513Z,15.76
2023-03-29T09:15:20.444Z,15.73
2023-03-29T09:18:03.751Z,15.53
2023-03-29T09:20:39.237Z,14.87
2023-03-29T09:23:25.431Z,13.75
2023-03-29T09:26:13.613Z,13.06
2023-03-29T09:29:09.015Z,12.12
2023-03-29T09:31:41.494Z,12.01
2023-03-29T09:34:14.363Z,12.37
2023-03-29T09:37:02.677Z,13.05
2023-03-29T09:39:30.894Z,14.78
2023-03-29T09:42:09.312Z,14.05
2023-03-29T09:44:42.689Z,13.52
2023-03-29T09:47:19.672Z,14.28
2023-03-29T09:49:50.923Z,15.26
2023-03-29T09:52:20.899Z,15.30
2023-03-29T09:55:01.195Z,15.92
2023-03-29T09:57:52.708Z,15.58
2023-03-29T10:00:21.499Z,15.71
2023-03-29T10:02:53.725Z,13.39
2023-03-29T10:05:29.486Z,13.31
2023-03-29T10:08:01.461Z,12.96
2023-03-29T10:10:31.902Z,12.48
2023-03-29T10:13:05.340Z,12.78
2023-03-29T10:15:34.078Z,12.65
2023-03-29T10:18:04.175Z,12.15
2023-03-29T10:20:32.540Z,11.43
2023-03-29T10:23:00.752Z,12.58
2023-03-29T10:25:31.204Z,13.91
2023-03-29T10:28:06.128Z,15.18
2023-03-29T10:30:38.593Z,15.94
2023-03-29T10:33:08.984Z,14.95
2023-03-29T10:35:41.442Z,15.60
2023-03-29T10:38:13.300Z,15.06
2023-03-29T10:40:43.840Z,13.91
2023-03-29T10:43:22.373Z,14.63
2023-03-29T10:45:51.154Z,15.08
2023-03-29T10:48:19.726Z,16.34
2023-03-29T10:50:52.939Z,16.78
2023-03-29T10:53:24.673Z,17.39
2023-03-29T10:56:09.314Z,16.78
2023-03-29T10:58:48.224Z,15.06
2023-03-29T11:01:18.857Z,13.63
2023-03-29T11:03:56.748Z,13.14
2023-03-29T11:06:28.758Z,12.64
2023-03-29T11:08:59.601Z,12.21
2023-03-29T11:11:41.109Z,11.84
2023-03-29T11:14:16.188Z,11.61
2023-03-29T11:16:49.033Z,11.39
2023-03-29T11:19:34.689Z,11.25
2023-03-29T11:22:08.636Z,11.16
2023-03-29T11:24:52.462Z,11.39
2023-03-29T11:27:27.571Z,10.87
2023-03-29T11:30:06.343Z,11.31
2023-03-29T11:32:41.159Z,11.71
2023-03-29T11:35:22.340Z,11.64
2023-03-29T11:37:53.829Z,11.62
2023-03-29T11:40:35.934Z,11.64
2023-03-29T11:43:05.858Z,11.76
2023-03-29T11:45:39.820Z,11.63
2023-03-29T11:48:12.256Z,11.97
2023-03-29T11:50:45.901Z,12.35
2023-03-29T11:53:17.645Z,11.79
2023-03-29T11:55:45.904Z,11.56
2023-03-29T11:58:17.840Z,11.40
2023-03-29T12:00:49.521Z,11.43
2023-03-29T12:03:21.946Z,11.39
2023-03-29T12:05:52.085Z,11.40
2023-03-29T12:08:23.732Z,11.53
2023-03-29T12:10:56.856Z,11.63
2023-03-29T12:13:28.251Z,11.42
2023-03-29T12:16:01.145Z,11.63
2023-03-29T12:18:33.141Z,11.98
2023-03-29T12:21:03.299Z,11.89
2023-03-29T12:23:34.457Z,11.99
2023-03-29T12:26:06.940Z,12.17
2023-03-29T12:28:53.950Z,11.89
2023-03-29T12:31:26.794Z,12.13
2023-03-29T12:34:16.940Z,12.09
2023-03-29T12:37:21.851Z,11.88
2023-03-29T12:40:14.378Z,11.43
2023-03-29T12:43:05.307Z,11.20
2023-03-29T12:45:56.171Z,11.11
2023-03-29T12:48:28.466Z,11.22
2023-03-29T12:51:01.779Z,11.39
2023-03-29T12:53:33.999Z,11.21
2023-03-29T12:56:11.572Z,11.20
2023-03-29T12:58:49.769Z,11.22
2023-03-29T13:01:27.662Z,11.09
2023-03-29T13:04:15.153Z,10.90
2023-03-29T13:07:02.739Z,11.12
2023-03-29T13:09:35.225Z,11.15
2023-03-29T13:12:17.654Z,11.35
2023-03-29T13:14:47.443Z,11.60
2023-03-29T13:17:25.777Z,11.55
2023-03-29T13:20:13.125Z,11.69
2023-03-29T13:22:49.124Z,11.61
2023-03-29T13:25:38.433Z,11.53
2023-03-29T13:28:13.030Z,11.29
2023-03-29T13:30:47.270Z,11.33
2023-03-29T13:33:30.024Z,11.18
2023-03-29T13:36:04.820Z,11.12
2023-03-29T13:38:35.362Z,11.01
2023-03-29T13:41:05.607Z,11.04
2023-03-29T13:43:38.636Z,10.92
2023-03-29T13:46:24.215Z,10.60
2023-03-29T13:48:56.257Z,10.73
2023-03-29T13:51:39.470Z,10.69
2023-03-29T13:54:15.024Z,10.67
2023-03-29T13:56:55.090Z,10.65
2023-03-29T13:59:29.831Z,10.79
2023-03-29T14:02:00.446Z,10.86
2023-03-29T14:04:32.666Z,10.74
2023-03-29T14:07:02.122Z,10.48
2023-03-29T14:09:32.077Z,10.63
2023-03-29T14:12:01.325Z,10.76
2023-03-29T14:14:31.603Z,10.62
2023-03-29T14:16:59.772Z,10.53
2023-03-29T14:19:31.672Z,10.59
2023-03-29T14:22:02.638Z,10.65
2023-03-29T14:24:36.896Z,10.66
2023-03-29T14:27:06.444Z,10.67
2023-03-29T14:29:34.464Z,10.67
2023-03-29T14:32:10.939Z,10.57
2023-03-29T14:34:39.074Z,10.52
2023-03-29T14:37:10.472Z,10.50
2023-03-29T14:39:39.777Z,10.48
2023-03-29T14:42:13.527Z,10.51
2023-03-29T14:44:41.493Z,10.45
2023-03-29T14:47:16.345Z,10.51
2023-03-29T14:49:45.563Z,10.44
2023-03-29T14:52:15.110Z,10.50
2023-03-29T14:54:48.440Z,10.45
2023-03-29T14:57:18.404Z,10.43
2023-03-29T14:59:55.584Z,10.44
2023-03-29T15:02:24.510Z,10.47
2023-03-29T15:04:58.109Z,10.35
2023-03-29T15:07:28.204Z,10.42
2023-03-29T15:09:56.838Z,10.39
2023-03-29T15:12:24.913Z,10.47
2023-03-29T15:14:53.637Z,10.52
2023-03-29T15:17:39.442Z,10.53
2023-03-29T15:20:18.476Z,10.47
2023-03-29T15:22:57.612Z,10.56
2023-03-29T15:25:28.273Z,10.48
2023-03-29T15:27:59.030Z,10.53
2023-03-29T15:30:37.170Z,10.42
2023-03-29T15:33:21.069Z,10.32
2023-03-29T15:35:51.169Z,10.27
2023-03-29T15:38:25.241Z,10.23
2023-03-29T15:40:58.349Z,10.36
2023-03-29T15:43:26.411Z,10.44
2023-03-29T15:45:54.396Z,10.30
2023-03-29T15:48:24.949Z,10.40
2023-03-29T15:50:53.572Z,10.47
2023-03-29T15:53:23.649Z,10.43
2023-03-29T15:55:53.342Z,10.57
2023-03-29T15:58:25.424Z,10.37
2023-03-29T16:00:56.364Z,10.46
2023-03-29T16:03:24.620Z,10.55
2023-03-29T16:05:54.226Z,10.56
2023-03-29T16:08:24.079Z,10.53
2023-03-29T16:10:52.092Z,10.53
2023-03-29T16:13:19.993Z,10.52
2023-03-29T16:15:47.940Z,10.55
2023-03-29T16:18:16.109Z,10.50
2023-03-29T16:20:44.044Z,10.54
2023-03-29T16:23:12.023Z,10.52
2023-03-29T16:25:41.443Z,10.55
2023-03-29T16:28:10.088Z,10.60
2023-03-29T16:30:38.515Z,10.55
2023-03-29T16:33:08.478Z,10.64
2023-03-29T16:35:39.889Z,10.69
2023-03-29T16:38:08.587Z,10.61
2023-03-29T16:40:37.008Z,10.58
2023-03-29T16:43:06.428Z,10.60
2023-03-29T16:45:34.342Z,10.46
2023-03-29T16:48:02.525Z,10.42
2023-03-29T16:50:30.652Z,10.35
2023-03-29T16:52:58.621Z,10.32
2023-03-29T16:55:26.539Z,10.31
2023-03-29T16:57:54.706Z,10.30
2023-03-29T17:00:24.287Z,10.29
2023-03-29T17:02:52.601Z,10.34
2023-03-29T17:05:20.722Z,10.29
2023-03-29T17:07:48.582Z,10.23
2023-03-29T17:10:16.637Z,10.24
2023-03-29T17:12:44.565Z,10.35
2023-03-29T17:15:12.493Z,10.40
2023-03-29T17:17:42.121Z,10.32
2023-03-29T17:20:12.814Z,10.31
2023-03-29T17:22:40.827Z,10.29
2023-03-29T17:25:09.405Z,10.26
2023-03-29T17:27:37.879Z,10.22
2023-03-29T17:30:06.712Z,10.22
2023-03-29T17:32:35.607Z,10.17
2023-03-29T17:35:05.739Z,10.15
2023-03-29T17:37:33.756Z,10.19
2023-03-29T17:40:07.040Z,10.12
2023-03-29T17:42:35.257Z,10.06
2023-03-29T17:45:04.727Z,10.10
2023-03-29T17:47:32.862Z,10.01
2023-03-29T17:50:00.943Z,9.91
2023-03-29T17:52:30.175Z,9.91
2023-03-29T17:54:58.038Z,9.90
2023-03-29T17:57:26.086Z,9.87
2023-03-29T17:59:54.089Z,9.90
2023-03-29T18:02:23.942Z,9.87
2023-03-29T18:04:52.059Z,9.88
2023-03-29T18:07:20.097Z,9.83
2023-03-29T18:09:49.405Z,9.82
2023-03-29T18:12:17.521Z,9.75
2023-03-29T18:14:45.519Z,9.77
2023-03-29T18:17:13.465Z,9.80
2023-03-29T18:19:41.401Z,9.80
2023-03-29T18:22:09.396Z,9.80
2023-03-29T18:24:37.257Z,9.80
2023-03-29T18:27:06.563Z,9.73
2023-03-29T18:29:34.502Z,9.72
2023-03-29T18:32:02.987Z,9.72
2023-03-29T18:34:31.645Z,9.69
2023-03-29T18:36:59.547Z,9.72
2023-03-29T18:39:27.488Z,9.85
2023-03-29T18:41:55.941Z,9.85
2023-03-29T18:44:27.278Z,9.81
2023-03-29T18:46:56.267Z,9.78
2023-03-29T18:49:24.966Z,9.75
2023-03-29T18:51:54.278Z,9.76
2023-03-29T18:54:22.219Z,9.76
2023-03-29T18:56:50.295Z,9.71
2023-03-29T18:59:18.309Z,9.70
2023-03-29T19:01:47.649Z,9.75
2023-03-29T19:04:15.691Z,9.75
2023-03-29T19:06:43.595Z,9.76
2023-03-29T19:09:11.791Z,9.76
2023-03-29T19:11:39.667Z,9.86
2023-03-29T19:14:09.135Z,9.80
2023-03-29T19:16:37.570Z,9.76
2023-03-29T19:19:07.063Z,9.75
2023-03-29T19:21:35.241Z,9.73
2023-03-29T19:24:04.974Z,9.75
2023-03-29T19:26:33.461Z,9.85
2023-03-29T19:29:01.640Z,9.79
2023-03-29T19:31:29.676Z,9.81
2023-03-29T19:33:57.562Z,9.82
2023-03-29T19:36:28.212Z,9.74
2023-03-29T19:38:56.126Z,9.70
2023-03-29T19:41:24.067Z,9.74
2023-03-29T19:43:52.002Z,9.71
2023-03-29T19:46:20.405Z,9.73
2023-03-29T19:48:48.501Z,9.69
2023-03-29T19:51:16.733Z,9.68
2023-03-29T19:53:47.185Z,9.67
2023-03-29T19:56:15.793Z,9.59
2023-03-29T19:58:43.703Z,9.54
2023-03-29T20:01:11.674Z,9.60
2023-03-29T20:03:42.243Z,9.53
2023-03-29T20:06:11.573Z,9.60
2023-03-29T20:08:39.622Z,9.54
2023-03-29T20:11:10.041Z,9.55
2023-03-29T20:13:39.220Z,9.56
2023-03-29T20:16:08.680Z,9.56
2023-03-29T20:18:38.228Z,9.64
2023-03-29T20:21:06.771Z,9.55
2023-03-29T20:23:35.234Z,9.58
2023-03-29T20:26:03.326Z,9.53
2023-03-29T20:28:32.542Z,9.52
2023-03-29T20:31:04.824Z,9.54
2023-03-29T20:33:32.931Z,9.53
2023-03-29T20:36:01.045Z,9.60
2023-03-29T20:38:29.140Z,9.56
2023-03-29T20:40:56.941Z,9.58
2023-03-29T20:43:24.905Z,9.54
2023-03-29T20:45:55.263Z,9.63
2023-03-29T20:48:24.706Z,9.59
2023-03-29T20:50:52.927Z,9.60
2023-03-29T20:53:21.353Z,9.58
2023-03-29T20:55:49.274Z,9.60
2023-03-29T20:58:17.214Z,9.51
2023-03-29T21:00:46.679Z,9.50
2023-03-29T21:03:16.098Z,9.51
2023-03-29T21:05:44.634Z,9.53
2023-03-29T21:08:12.555Z,9.60
2023-03-29T21:10:42.454Z,9.49
2023-03-29T21:13:10.671Z,9.47
2023-03-29T21:15:40.490Z,9.56
2023-03-29T21:18:08.811Z,9.52
2023-03-29T21:20:38.845Z,9.54
2023-03-29T21:23:06.743Z,9.49
2023-03-29T21:25:34.617Z,9.59
2023-03-29T21:28:02.582Z,9.50
2023-03-29T21:30:32.369Z,9.45
2023-03-29T21:33:00.455Z,9.45
2023-03-29T21:35:28.562Z,9.43
2023-03-29T21:37:57.845Z,9.44
2023-03-29T21:40:25.778Z,9.43
2023-03-29T21:42:53.747Z,9.48
2023-03-29T21:45:21.728Z,9.41
2023-03-29T21:47:49.673Z,9.42
2023-03-29T21:50:17.930Z,9.36
2023-03-29T21:52:45.867Z,9.35
2023-03-29T21:55:16.136Z,9.29
2023-03-29T21:57:44.109Z,9.32
2023-03-29T22:00:15.233Z,9.32
2023-03-29T22:02:43.974Z,9.29
2023-03-29T22:05:12.373Z,9.24
2023-03-29T22:07:45.493Z,9.25
2023-03-29T22:10:13.849Z,9.24
2023-03-29T22:12:43.862Z,9.21
2023-03-29T22:15:12.760Z,9.22
2023-03-29T22:17:42.722Z,9.29
2023-03-29T22:20:13.826Z,9.29
2023-03-29T22:22:45.698Z,9.29
2023-03-29T22:25:14.213Z,9.28
2023-03-29T22:27:43.732Z,9.34
2023-03-29T22:30:12.582Z,9.33
2023-03-29T22:32:40.985Z,9.36
2023-03-29T22:35:09.915Z,9.31
2023-03-29T22:37:41.447Z,9.27
2023-03-29T22:40:10.953Z,9.25
2023-03-29T22:42:38.915Z,9.28
2023-03-29T22:45:09.577Z,9.29
2023-03-29T22:47:37.480Z,9.29
2023-03-29T22:50:07.150Z,9.23
2023-03-29T22:52:35.245Z,9.19
2023-03-29T22:55:03.142Z,9.19
2023-03-29T22:57:31.115Z,9.20
2023-03-29T22:59:58.979Z,9.19
2023-03-29T23:02:28.245Z,9.20
2023-03-29T23:04:56.319Z,9.13
2023-03-29T23:07:24.195Z,9.16
2023-03-29T23:09:52.040Z,9.15
2023-03-29T23:12:20.030Z,9.15
2023-03-29T23:14:47.895Z,9.07
2023-03-29T23:17:19.197Z,9.13
2023-03-29T23:19:48.888Z,9.07
2023-03-29T23:22:16.768Z,9.06
2023-03-29T23:24:47.246Z,9.04
2023-03-29T23:27:15.378Z,8.98
2023-03-29T23:29:45.169Z,9.03
2023-03-29T23:32:14.092Z,9.07
2023-03-29T23:34:42.114Z,8.98
2023-03-29T23:37:11.403Z,8.93
2023-03-29T23:39:39.378Z,8.96
2023-03-29T23:42:07.335Z,8.92
2023-03-29T23:44:35.302Z,9.06
2023-03-29T23:47:03.262Z,8.98
2023-03-29T23:49:31.787Z,8.96
2023-03-29T23:52:00.164Z,8.96
2023-03-29T23:54:30.020Z,8.98
2023-03-29T23:56:58.094Z,9.04
2023-03-29T23:59:29.764Z,8.99
